Breslau, Texas
Current Conditions -  °F | °C
As of 12:35 AM on Tuesday 21 Oct 2014 (Local Time) from K66R Reporting Station
Clear Clear  
Wind Chill: 63°   Ceiling: Unl
Heat Index: 63°   Visibility: 10mi
Dew Point: 60°   Wind: 3mph
Humidity: 91%   Direction: 80°E
Pressure: 30.01"   Gusts: NA
Location:  29.3984°N, 96.8256°W
Report Text: K66R 210535Z AUTO 08003KT 10SM CLR 17/16 A3001 RMK AO2 T01700155
Loading
Personal Weather Stations






























Interactive Weather Map
Tropical Storm Tracking
New forecast layout! Learn more

10-Day Weather Forecast

Advertisements
Track Severe Weather on mobile